sensor_id;sensor_type;location;lat;lon;timestamp;pressure;altitude;pressure_sealevel;temperature;humidity
27712;BME280;2377;51.734;8.950;2022-11-15T00:00:34;97374.31;;;10.13;85.43
27712;BME280;2377;51.734;8.950;2022-11-15T00:03:01;97365.44;;;10.15;85.41
27712;BME280;2377;51.734;8.950;2022-11-15T00:05:29;97362.13;;;10.15;85.29
27712;BME280;2377;51.734;8.950;2022-11-15T00:07:57;97372.31;;;10.15;85.27
27712;BME280;2377;51.734;8.950;2022-11-15T00:10:24;97366.25;;;10.16;85.96
27712;BME280;2377;51.734;8.950;2022-11-15T00:12:52;97370.78;;;10.14;85.61
27712;BME280;2377;51.734;8.950;2022-11-15T00:15:20;97362.13;;;10.15;85.74
27712;BME280;2377;51.734;8.950;2022-11-15T00:17:49;97367.22;;;10.15;85.28
27712;BME280;2377;51.734;8.950;2022-11-15T00:20:17;97370.78;;;10.14;85.48
27712;BME280;2377;51.734;8.950;2022-11-15T00:22:44;97365.13;;;10.12;86.14
27712;BME280;2377;51.734;8.950;2022-11-15T00:25:11;97361.00;;;10.11;85.99
27712;BME280;2377;51.734;8.950;2022-11-15T00:27:39;97355.13;;;10.10;85.81
27712;BME280;2377;51.734;8.950;2022-11-15T00:30:09;97363.34;;;10.12;85.97
27712;BME280;2377;51.734;8.950;2022-11-15T00:32:36;97362.78;;;10.10;85.80
27712;BME280;2377;51.734;8.950;2022-11-15T00:35:04;97377.88;;;10.12;85.57
27712;BME280;2377;51.734;8.950;2022-11-15T00:37:31;97372.78;;;10.12;86.35
27712;BME280;2377;51.734;8.950;2022-11-15T00:39:59;97375.91;;;10.14;86.10
27712;BME280;2377;51.734;8.950;2022-11-15T00:42:26;97368.78;;;10.16;86.32
27712;BME280;2377;51.734;8.950;2022-11-15T00:44:53;97373.91;;;10.16;86.69
27712;BME280;2377;51.734;8.950;2022-11-15T00:47:22;97373.66;;;10.18;86.67
27712;BME280;2377;51.734;8.950;2022-11-15T00:49:49;97365.22;;;10.17;86.83
27712;BME280;2377;51.734;8.950;2022-11-15T00:52:16;97367.22;;;10.15;87.48
27712;BME280;2377;51.734;8.950;2022-11-15T00:54:44;97359.56;;;10.15;87.35
27712;BME280;2377;51.734;8.950;2022-11-15T00:57:11;97362.13;;;10.15;88.27
27712;BME280;2377;51.734;8.950;2022-11-15T00:59:38;97358.03;;;10.14;88.95
27712;BME280;2377;51.734;8.950;2022-11-15T01:02:05;97340.56;;;10.11;88.84
27712;BME280;2377;51.734;8.950;2022-11-15T01:04:34;97341.69;;;10.15;88.96
27712;BME280;2377;51.734;8.950;2022-11-15T01:07:01;97331.16;;;10.11;89.56
27712;BME280;2377;51.734;8.950;2022-11-15T01:09:28;97337.47;;;10.09;89.22
27712;BME280;2377;51.734;8.950;2022-11-15T01:11:55;97322.94;;;10.09;89.16
27712;BME280;2377;51.734;8.950;2022-11-15T01:14:23;97328.81;;;10.10;89.20
27712;BME280;2377;51.734;8.950;2022-11-15T01:16:50;97335.47;;;10.11;89.02
27712;BME280;2377;51.734;8.950;2022-11-15T01:19:17;97339.13;;;10.15;89.13
27712;BME280;2377;51.734;8.950;2022-11-15T01:21:48;97331.47;;;10.15;89.42
27712;BME280;2377;51.734;8.950;2022-11-15T01:24:16;97322.84;;;10.16;89.62
27712;BME280;2377;51.734;8.950;2022-11-15T01:26:43;97331.03;;;10.18;89.81
27712;BME280;2377;51.734;8.950;2022-11-15T01:29:10;97326.72;;;10.19;90.39
27712;BME280;2377;51.734;8.950;2022-11-15T01:31:37;97323.91;;;10.20;90.17
27712;BME280;2377;51.734;8.950;2022-11-15T01:34:05;97325.81;;;10.13;92.14
27712;BME280;2377;51.734;8.950;2022-11-15T01:36:32;97326.25;;;10.22;91.05
27712;BME280;2377;51.734;8.950;2022-11-15T01:39:01;97320.69;;;10.25;91.26
27712;BME280;2377;51.734;8.950;2022-11-15T01:41:31;97323.81;;;10.27;91.73
27712;BME280;2377;51.734;8.950;2022-11-15T01:44:40;97325.03;;;10.24;91.71
27712;BME280;2377;51.734;8.950;2022-11-15T01:47:12;97312.28;;;10.24;91.84
27712;BME280;2377;51.734;8.950;2022-11-15T01:49:50;97313.28;;;10.23;91.26
27712;BME280;2377;51.734;8.950;2022-11-15T01:52:23;97302.50;;;10.21;91.15
27712;BME280;2377;51.734;8.950;2022-11-15T01:54:58;97302.72;;;10.20;91.03
27712;BME280;2377;51.734;8.950;2022-11-15T01:57:26;97308.03;;;10.18;91.24
27712;BME280;2377;51.734;8.950;2022-11-15T01:59:54;97308.84;;;10.19;90.66
27712;BME280;2377;51.734;8.950;2022-11-15T02:02:22;97307.50;;;10.16;90.78
27712;BME280;2377;51.734;8.950;2022-11-15T02:04:49;97310.06;;;10.16;91.12
27712;BME280;2377;51.734;8.950;2022-11-15T02:07:19;97315.38;;;10.14;90.73
27712;BME280;2377;51.734;8.950;2022-11-15T02:09:49;97308.94;;;10.12;91.15
27712;BME280;2377;51.734;8.950;2022-11-15T02:12:20;97307.16;;;10.12;91.16
27712;BME280;2377;51.734;8.950;2022-11-15T02:14:51;97306.94;;;10.14;90.89
27712;BME280;2377;51.734;8.950;2022-11-15T02:17:51;97309.50;;;10.14;91.47
27712;BME280;2377;51.734;8.950;2022-11-15T02:20:50;97314.50;;;10.09;92.23
27712;BME280;2377;51.734;8.950;2022-11-15T02:27:53;97293.38;;;10.02;91.11
27712;BME280;2377;51.734;8.950;2022-11-15T02:30:38;97295.41;;;10.00;91.14
27712;BME280;2377;51.734;8.950;2022-11-15T02:33:24;97296.81;;;9.95;91.97
27712;BME280;2377;51.734;8.950;2022-11-15T02:36:00;97293.25;;;9.97;91.84
27712;BME280;2377;51.734;8.950;2022-11-15T02:38:38;97288.16;;;9.97;92.09
27712;BME280;2377;51.734;8.950;2022-11-15T02:41:11;97286.06;;;9.93;92.33
27712;BME280;2377;51.734;8.950;2022-11-15T02:43:49;97285.50;;;9.91;92.90
27712;BME280;2377;51.734;8.950;2022-11-15T02:46:34;97279.63;;;9.91;92.93
27712;BME280;2377;51.734;8.950;2022-11-15T02:49:20;97276.06;;;9.92;93.30
27712;BME280;2377;51.734;8.950;2022-11-15T02:51:50;97271.31;;;9.95;93.11
27712;BME280;2377;51.734;8.950;2022-11-15T02:54:22;97279.28;;;9.99;93.37
27712;BME280;2377;51.734;8.950;2022-11-15T02:56:52;97276.50;;;10.01;93.24
27712;BME280;2377;51.734;8.950;2022-11-15T03:00:05;97273.84;;;9.95;93.40
27712;BME280;2377;51.734;8.950;2022-11-15T03:03:10;97271.84;;;9.98;92.99
27712;BME280;2377;51.734;8.950;2022-11-15T03:05:48;97273.19;;;10.00;92.81
27712;BME280;2377;51.734;8.950;2022-11-15T03:08:28;97275.19;;;9.98;92.70
27712;BME280;2377;51.734;8.950;2022-11-15T03:11:07;97271.84;;;9.98;92.20
27712;BME280;2377;51.734;8.950;2022-11-15T03:13:46;97283.84;;;9.97;92.37
27712;BME280;2377;51.734;8.950;2022-11-15T03:16:26;97279.53;;;9.98;92.86
27712;BME280;2377;51.734;8.950;2022-11-15T03:19:02;97275.94;;;9.99;92.23
27712;BME280;2377;51.734;8.950;2022-11-15T03:21:34;97276.41;;;9.95;92.55
27712;BME280;2377;51.734;8.950;2022-11-15T03:24:06;97278.84;;;10.02;93.75
27712;BME280;2377;51.734;8.950;2022-11-15T03:26:37;97271.19;;;10.02;93.57
27712;BME280;2377;51.734;8.950;2022-11-15T03:29:12;97269.97;;;10.05;93.74
27712;BME280;2377;51.734;8.950;2022-11-15T03:31:46;97265.97;;;10.09;93.79
27712;BME280;2377;51.734;8.950;2022-11-15T03:34:24;97272.63;;;10.10;93.90
27712;BME280;2377;51.734;8.950;2022-11-15T03:36:53;97267.84;;;10.13;94.33
27712;BME280;2377;51.734;8.950;2022-11-15T03:39:22;97263.53;;;10.14;93.99
27712;BME280;2377;51.734;8.950;2022-11-15T03:42:02;97259.97;;;10.15;93.76
27712;BME280;2377;51.734;8.950;2022-11-15T03:44:41;97261.97;;;10.13;94.13
27712;BME280;2377;51.734;8.950;2022-11-15T03:47:18;97259.00;;;10.16;94.21
27712;BME280;2377;51.734;8.950;2022-11-15T03:49:53;97255.41;;;10.17;93.89
27712;BME280;2377;51.734;8.950;2022-11-15T03:52:23;97254.97;;;10.20;94.22
27712;BME280;2377;51.734;8.950;2022-11-15T03:54:54;97260.53;;;10.17;94.72
27712;BME280;2377;51.734;8.950;2022-11-15T03:57:22;97250.88;;;10.19;94.79
27712;BME280;2377;51.734;8.950;2022-11-15T03:59:49;97259.97;;;10.15;94.88
27712;BME280;2377;51.734;8.950;2022-11-15T04:02:17;97251.31;;;10.16;94.74
27712;BME280;2377;51.734;8.950;2022-11-15T04:04:44;97249.66;;;10.22;94.57
27712;BME280;2377;51.734;8.950;2022-11-15T04:07:12;97252.75;;;10.24;94.24
27712;BME280;2377;51.734;8.950;2022-11-15T04:09:40;97255.75;;;10.21;94.72
27712;BME280;2377;51.734;8.950;2022-11-15T04:12:21;97249.66;;;10.22;94.65
27712;BME280;2377;51.734;8.950;2022-11-15T04:14:57;97251.63;;;10.20;94.74
27712;BME280;2377;51.734;8.950;2022-11-15T04:17:35;97256.44;;;10.16;95.07
27712;BME280;2377;51.734;8.950;2022-11-15T04:20:05;97257.88;;;10.24;95.23
27712;BME280;2377;51.734;8.950;2022-11-15T04:22:54;97258.75;;;10.18;95.45
27712;BME280;2377;51.734;8.950;2022-11-15T04:25:39;97264.19;;;10.21;96.25
27712;BME280;2377;51.734;8.950;2022-11-15T04:28:07;97261.66;;;10.21;96.18
27712;BME280;2377;51.734;8.950;2022-11-15T04:30:34;97266.09;;;10.26;96.06
27712;BME280;2377;51.734;8.950;2022-11-15T04:33:01;97276.06;;;10.27;96.21
27712;BME280;2377;51.734;8.950;2022-11-15T04:35:30;97267.84;;;10.25;96.75
27712;BME280;2377;51.734;8.950;2022-11-15T04:37:59;97268.00;;;10.30;96.19
27712;BME280;2377;51.734;8.950;2022-11-15T04:40:26;97271.31;;;10.43;96.43
27712;BME280;2377;51.734;8.950;2022-11-15T04:42:53;97278.53;;;10.46;96.22
27712;BME280;2377;51.734;8.950;2022-11-15T04:45:20;97275.53;;;10.49;96.63
27712;BME280;2377;51.734;8.950;2022-11-15T04:47:47;97277.53;;;10.47;96.53
27712;BME280;2377;51.734;8.950;2022-11-15T04:50:15;97280.75;;;10.54;96.51
27712;BME280;2377;51.734;8.950;2022-11-15T04:52:50;97276.50;;;10.60;96.53
27712;BME280;2377;51.734;8.950;2022-11-15T04:55:19;97285.03;;;10.65;96.95
27712;BME280;2377;51.734;8.950;2022-11-15T04:57:46;97284.91;;;10.72;96.80
27712;BME280;2377;51.734;8.950;2022-11-15T05:00:16;97286.47;;;10.73;96.44
27712;BME280;2377;51.734;8.950;2022-11-15T05:02:44;97282.78;;;10.81;96.25
27712;BME280;2377;51.734;8.950;2022-11-15T05:05:28;97276.44;;;10.83;96.15
27712;BME280;2377;51.734;8.950;2022-11-15T05:07:55;97282.31;;;10.84;97.04
27712;BME280;2377;51.734;8.950;2022-11-15T05:10:24;97283.44;;;10.88;96.88
27712;BME280;2377;51.734;8.950;2022-11-15T05:12:51;97282.97;;;10.91;96.77
27712;BME280;2377;51.734;8.950;2022-11-15T05:15:18;97285.19;;;10.99;96.20
27712;BME280;2377;51.734;8.950;2022-11-15T05:17:46;97286.41;;;10.96;96.17
27712;BME280;2377;51.734;8.950;2022-11-15T05:20:14;97294.97;;;11.02;95.73
27712;BME280;2377;51.734;8.950;2022-11-15T05:22:41;97298.16;;;11.09;95.12
27712;BME280;2377;51.734;8.950;2022-11-15T05:25:08;97296.06;;;11.06;94.63
27712;BME280;2377;51.734;8.950;2022-11-15T05:27:37;97297.59;;;11.07;94.70
27712;BME280;2377;51.734;8.950;2022-11-15T05:30:05;97293.28;;;11.08;94.54
27712;BME280;2377;51.734;8.950;2022-11-15T05:32:33;97295.38;;;11.11;94.31
27712;BME280;2377;51.734;8.950;2022-11-15T05:35:00;97288.16;;;11.08;93.59
27712;BME280;2377;51.734;8.950;2022-11-15T05:37:29;97289.50;;;11.10;93.96
27712;BME280;2377;51.734;8.950;2022-11-15T05:39:56;97289.25;;;11.12;93.74
27712;BME280;2377;51.734;8.950;2022-11-15T05:42:27;97281.91;;;11.15;93.31
27712;BME280;2377;51.734;8.950;2022-11-15T05:44:58;97282.91;;;11.14;93.44
27712;BME280;2377;51.734;8.950;2022-11-15T05:47:29;97279.34;;;11.15;93.23
27712;BME280;2377;51.734;8.950;2022-11-15T05:49:57;97271.69;;;11.15;93.12
27712;BME280;2377;51.734;8.950;2022-11-15T05:52:30;97273.00;;;11.18;92.84
27712;BME280;2377;51.734;8.950;2022-11-15T05:54:59;97276.53;;;11.17;92.71
27712;BME280;2377;51.734;8.950;2022-11-15T05:57:26;97266.31;;;11.17;92.56
27712;BME280;2377;51.734;8.950;2022-11-15T05:59:55;97265.53;;;11.16;92.57
27712;BME280;2377;51.734;8.950;2022-11-15T06:02:23;97267.09;;;11.17;92.50
27712;BME280;2377;51.734;8.950;2022-11-15T06:04:50;97261.19;;;11.17;92.31
27712;BME280;2377;51.734;8.950;2022-11-15T06:07:17;97254.06;;;11.19;92.29
27712;BME280;2377;51.734;8.950;2022-11-15T06:09:44;97248.97;;;11.19;92.33
27712;BME280;2377;51.734;8.950;2022-11-15T06:12:11;97258.41;;;11.18;92.21
27712;BME280;2377;51.734;8.950;2022-11-15T06:14:39;97255.66;;;11.20;91.91
27712;BME280;2377;51.734;8.950;2022-11-15T06:17:07;97254.06;;;11.19;91.79
27712;BME280;2377;51.734;8.950;2022-11-15T06:19:34;97258.41;;;11.18;91.68
27712;BME280;2377;51.734;8.950;2022-11-15T06:22:02;97257.66;;;11.18;91.27
27712;BME280;2377;51.734;8.950;2022-11-15T06:24:29;97254.53;;;11.16;91.19
27712;BME280;2377;51.734;8.950;2022-11-15T06:26:56;97259.88;;;11.14;90.74
27712;BME280;2377;51.734;8.950;2022-11-15T06:29:24;97259.69;;;11.04;91.00
27712;BME280;2377;51.734;8.950;2022-11-15T06:31:52;97257.63;;;11.01;90.89
27712;BME280;2377;51.734;8.950;2022-11-15T06:34:20;97256.50;;;10.97;90.77
27712;BME280;2377;51.734;8.950;2022-11-15T06:36:48;97254.97;;;10.96;91.02
27712;BME280;2377;51.734;8.950;2022-11-15T06:39:15;97246.19;;;10.92;91.09
27712;BME280;2377;51.734;8.950;2022-11-15T06:41:42;97250.75;;;10.90;90.99
27712;BME280;2377;51.734;8.950;2022-11-15T06:44:09;97249.75;;;10.91;91.29
27712;BME280;2377;51.734;8.950;2022-11-15T06:46:36;97245.63;;;10.90;91.52
27712;BME280;2377;51.734;8.950;2022-11-15T06:49:04;97250.75;;;10.90;91.38
27712;BME280;2377;51.734;8.950;2022-11-15T06:51:32;97257.41;;;10.91;91.33
27712;BME280;2377;51.734;8.950;2022-11-15T06:54:00;97251.75;;;10.89;91.60
27712;BME280;2377;51.734;8.950;2022-11-15T06:56:27;97250.75;;;10.90;91.39
27712;BME280;2377;51.734;8.950;2022-11-15T06:58:55;97250.66;;;10.85;91.75
27712;BME280;2377;51.734;8.950;2022-11-15T07:01:22;97259.41;;;10.89;91.69
27712;BME280;2377;51.734;8.950;2022-11-15T07:03:49;97257.66;;;10.89;91.70
27712;BME280;2377;51.734;8.950;2022-11-15T07:06:16;97260.97;;;10.90;91.66
27712;BME280;2377;51.734;8.950;2022-11-15T07:08:45;97268.66;;;10.90;91.42
27712;BME280;2377;51.734;8.950;2022-11-15T07:11:12;97269.13;;;10.87;91.45
27712;BME280;2377;51.734;8.950;2022-11-15T07:13:40;97280.13;;;10.87;91.51
27712;BME280;2377;51.734;8.950;2022-11-15T07:16:09;97275.22;;;10.86;91.32
27712;BME280;2377;51.734;8.950;2022-11-15T07:18:39;97275.22;;;10.86;91.29
27712;BME280;2377;51.734;8.950;2022-11-15T07:21:09;97277.22;;;10.84;91.66
27712;BME280;2377;51.734;8.950;2022-11-15T07:23:39;97272.19;;;10.89;91.69
27712;BME280;2377;51.734;8.950;2022-11-15T07:26:08;97278.97;;;10.95;91.45
27712;BME280;2377;51.734;8.950;2022-11-15T07:28:35;97274.63;;;10.95;91.24
27712;BME280;2377;51.734;8.950;2022-11-15T07:31:04;97277.44;;;10.94;91.53
27712;BME280;2377;51.734;8.950;2022-11-15T07:33:31;97276.41;;;10.95;91.14
27712;BME280;2377;51.734;8.950;2022-11-15T07:35:59;97281.06;;;10.98;91.17
27712;BME280;2377;51.734;8.950;2022-11-15T07:38:28;97283.50;;;11.05;91.34
27712;BME280;2377;51.734;8.950;2022-11-15T07:40:59;97294.06;;;11.08;91.23
27712;BME280;2377;51.734;8.950;2022-11-15T07:43:29;97292.91;;;11.16;91.20
27712;BME280;2377;51.734;8.950;2022-11-15T07:45:58;97293.53;;;11.23;91.21
27712;BME280;2377;51.734;8.950;2022-11-15T07:48:25;97289.28;;;11.29;91.03
27712;BME280;2377;51.734;8.950;2022-11-15T07:50:53;97287.81;;;11.33;90.91
27712;BME280;2377;51.734;8.950;2022-11-15T07:53:20;97284.34;;;11.39;90.67
27712;BME280;2377;51.734;8.950;2022-11-15T07:55:47;97304.69;;;11.46;90.34
27712;BME280;2377;51.734;8.950;2022-11-15T07:58:14;97297.31;;;11.49;90.65
27712;BME280;2377;51.734;8.950;2022-11-15T08:00:43;97290.75;;;11.53;90.35
27712;BME280;2377;51.734;8.950;2022-11-15T08:03:12;97300.06;;;11.59;90.35
27712;BME280;2377;51.734;8.950;2022-11-15T08:05:42;97297.03;;;11.62;89.67
27712;BME280;2377;51.734;8.950;2022-11-15T08:08:11;97293.22;;;11.65;89.47
27712;BME280;2377;51.734;8.950;2022-11-15T08:10:38;97305.56;;;11.68;89.25
27712;BME280;2377;51.734;8.950;2022-11-15T08:13:07;97306.13;;;11.70;89.23
27712;BME280;2377;51.734;8.950;2022-11-15T08:15:36;97300.53;;;11.73;89.11
27712;BME280;2377;51.734;8.950;2022-11-15T08:18:09;97292.63;;;11.75;88.77
27712;BME280;2377;51.734;8.950;2022-11-15T08:20:37;97287.50;;;11.75;88.44
27712;BME280;2377;51.734;8.950;2022-11-15T08:23:05;97288.03;;;11.77;88.48
27712;BME280;2377;51.734;8.950;2022-11-15T08:25:35;97287.66;;;11.85;88.66
27712;BME280;2377;51.734;8.950;2022-11-15T08:28:05;97293.97;;;11.94;88.33
27712;BME280;2377;51.734;8.950;2022-11-15T08:30:36;97283.09;;;12.04;88.60
27712;BME280;2377;51.734;8.950;2022-11-15T08:33:12;97291.22;;;12.18;88.32
27712;BME280;2377;51.734;8.950;2022-11-15T08:35:40;97292.63;;;12.25;87.69
27712;BME280;2377;51.734;8.950;2022-11-15T08:38:08;97289.66;;;12.34;87.06
27712;BME280;2377;51.734;8.950;2022-11-15T08:40:36;97293.06;;;12.39;86.41
27712;BME280;2377;51.734;8.950;2022-11-15T08:43:03;97291.13;;;12.46;86.14
27712;BME280;2377;51.734;8.950;2022-11-15T08:45:31;97287.72;;;12.63;86.39
27712;BME280;2377;51.734;8.950;2022-11-15T08:48:01;97286.41;;;12.82;85.26
27712;BME280;2377;51.734;8.950;2022-11-15T08:50:30;97283.06;;;13.04;84.70
27712;BME280;2377;51.734;8.950;2022-11-15T08:53:05;97284.53;;;13.22;83.76
27712;BME280;2377;51.734;8.950;2022-11-15T08:55:37;97289.31;;;13.40;82.72
27712;BME280;2377;51.734;8.950;2022-11-15T08:58:05;97279.16;;;13.50;81.21
27712;BME280;2377;51.734;8.950;2022-11-15T09:00:33;97290.41;;;13.77;81.34
27712;BME280;2377;51.734;8.950;2022-11-15T09:03:03;97290.47;;;13.87;79.46
27712;BME280;2377;51.734;8.950;2022-11-15T09:05:32;97296.19;;;13.94;79.63
27712;BME280;2377;51.734;8.950;2022-11-15T09:08:02;97304.72;;;14.00;78.12
27712;BME280;2377;51.734;8.950;2022-11-15T09:10:30;97303.25;;;13.77;78.21
27712;BME280;2377;51.734;8.950;2022-11-15T09:12:57;97304.88;;;13.56;78.77
27712;BME280;2377;51.734;8.950;2022-11-15T09:15:24;97291.81;;;13.57;79.46
27712;BME280;2377;51.734;8.950;2022-11-15T09:17:52;97285.97;;;13.67;79.40
27712;BME280;2377;51.734;8.950;2022-11-15T09:20:19;97293.91;;;13.65;78.88
27712;BME280;2377;51.734;8.950;2022-11-15T09:22:47;97294.78;;;13.76;78.77
27712;BME280;2377;51.734;8.950;2022-11-15T09:25:15;97292.59;;;13.95;79.04
27712;BME280;2377;51.734;8.950;2022-11-15T09:27:43;97290.66;;;14.12;77.49
27712;BME280;2377;51.734;8.950;2022-11-15T09:30:11;97284.06;;;14.32;76.66
27712;BME280;2377;51.734;8.950;2022-11-15T09:32:39;97279.78;;;14.48;76.60
27712;BME280;2377;51.734;8.950;2022-11-15T09:35:07;97286.06;;;14.62;75.98
27712;BME280;2377;51.734;8.950;2022-11-15T09:37:34;97288.94;;;14.71;75.15
27712;BME280;2377;51.734;8.950;2022-11-15T09:40:04;97284.31;;;14.78;74.76
27712;BME280;2377;51.734;8.950;2022-11-15T09:42:54;97286.66;;;14.79;73.37
27712;BME280;2377;51.734;8.950;2022-11-15T09:45:34;97284.34;;;14.88;73.39
27712;BME280;2377;51.734;8.950;2022-11-15T09:48:48;97287.72;;;14.94;73.84
27712;BME280;2377;51.734;8.950;2022-11-15T09:51:30;97286.47;;;15.12;73.12
27712;BME280;2377;51.734;8.950;2022-11-15T09:54:10;97285.50;;;15.33;72.38
27712;BME280;2377;51.734;8.950;2022-11-15T09:56:43;97290.13;;;15.52;70.93
27712;BME280;2377;51.734;8.950;2022-11-15T09:59:35;97274.94;;;15.65;70.89
27712;BME280;2377;51.734;8.950;2022-11-15T10:02:23;97276.28;;;15.73;69.75
27712;BME280;2377;51.734;8.950;2022-11-15T10:04:58;97272.66;;;15.74;70.10
27712;BME280;2377;51.734;8.950;2022-11-15T10:07:34;97270.56;;;15.56;71.24
27712;BME280;2377;51.734;8.950;2022-11-15T10:10:14;97269.00;;;15.39;71.61
27712;BME280;2377;51.734;8.950;2022-11-15T10:12:50;97266.19;;;15.41;69.98
27712;BME280;2377;51.734;8.950;2022-11-15T10:15:19;97263.84;;;15.50;69.41
27712;BME280;2377;51.734;8.950;2022-11-15T10:18:16;97262.84;;;15.46;69.33
27712;BME280;2377;51.734;8.950;2022-11-15T10:20:51;97267.47;;;15.43;69.69
27712;BME280;2377;51.734;8.950;2022-11-15T10:23:23;97261.28;;;15.44;69.83
27712;BME280;2377;51.734;8.950;2022-11-15T10:25:54;97251.78;;;15.50;69.95
27712;BME280;2377;51.734;8.950;2022-11-15T10:28:27;97249.97;;;15.51;69.81
27712;BME280;2377;51.734;8.950;2022-11-15T10:30:57;97246.88;;;15.64;69.90
27712;BME280;2377;51.734;8.950;2022-11-15T10:33:31;97239.16;;;15.69;69.20
27712;BME280;2377;51.734;8.950;2022-11-15T10:36:21;97231.91;;;15.66;69.85
27712;BME280;2377;51.734;8.950;2022-11-15T10:38:56;97225.75;;;15.72;68.97
27712;BME280;2377;51.734;8.950;2022-11-15T10:41:35;97224.75;;;15.73;68.73
27712;BME280;2377;51.734;8.950;2022-11-15T10:44:23;97213.94;;;15.71;68.82
27712;BME280;2377;51.734;8.950;2022-11-15T10:47:25;97222.91;;;15.58;68.59
27712;BME280;2377;51.734;8.950;2022-11-15T10:49:57;97207.22;;;15.55;69.24
27712;BME280;2377;51.734;8.950;2022-11-15T10:52:25;97211.31;;;15.66;70.14
27712;BME280;2377;51.734;8.950;2022-11-15T10:54:56;97206.72;;;15.73;69.80
27712;BME280;2377;51.734;8.950;2022-11-15T10:57:28;97200.25;;;15.76;70.18
27712;BME280;2377;51.734;8.950;2022-11-15T11:00:02;97207.44;;;15.84;69.30
27712;BME280;2377;51.734;8.950;2022-11-15T11:02:35;97202.28;;;15.84;68.13
27712;BME280;2377;51.734;8.950;2022-11-15T11:05:07;97195.09;;;15.81;68.17
27712;BME280;2377;51.734;8.950;2022-11-15T11:07:56;97193.81;;;15.73;67.98
27712;BME280;2377;51.734;8.950;2022-11-15T11:10:25;97196.34;;;15.68;67.80
27712;BME280;2377;51.734;8.950;2022-11-15T11:12:52;97191.72;;;15.65;67.88
27712;BME280;2377;51.734;8.950;2022-11-15T11:15:27;97184.00;;;15.60;67.66
27712;BME280;2377;51.734;8.950;2022-11-15T11:18:06;97191.72;;;15.50;67.69
27712;BME280;2377;51.734;8.950;2022-11-15T11:20:41;97185.59;;;15.46;67.95
27712;BME280;2377;51.734;8.950;2022-11-15T11:23:38;97186.34;;;15.46;68.03
27712;BME280;2377;51.734;8.950;2022-11-15T11:26:29;97184.81;;;15.50;68.62
27712;BME280;2377;51.734;8.950;2022-11-15T11:29:14;97182.97;;;15.56;68.46
27712;BME280;2377;51.734;8.950;2022-11-15T11:31:58;97175.78;;;15.58;68.43
27712;BME280;2377;51.734;8.950;2022-11-15T11:34:52;97171.13;;;15.60;69.22
27712;BME280;2377;51.734;8.950;2022-11-15T11:37:37;97172.44;;;15.57;68.02
27712;BME280;2377;51.734;8.950;2022-11-15T11:40:20;97166.50;;;15.62;68.98
27712;BME280;2377;51.734;8.950;2022-11-15T11:42:57;97163.66;;;15.69;69.25
27712;BME280;2377;51.734;8.950;2022-11-15T11:46:02;97163.13;;;15.61;67.89
27712;BME280;2377;51.734;8.950;2022-11-15T11:48:42;97152.59;;;15.53;68.19
27712;BME280;2377;51.734;8.950;2022-11-15T11:51:18;97146.94;;;15.46;68.42
27712;BME280;2377;51.734;8.950;2022-11-15T11:53:54;97134.56;;;15.42;68.62
27712;BME280;2377;51.734;8.950;2022-11-15T11:56:28;97124.28;;;15.48;68.93
27712;BME280;2377;51.734;8.950;2022-11-15T11:59:02;97132.25;;;15.51;68.08
27712;BME280;2377;51.734;8.950;2022-11-15T12:01:39;97133.00;;;15.52;68.96
27712;BME280;2377;51.734;8.950;2022-11-15T12:04:17;97121.16;;;15.56;68.87
27712;BME280;2377;51.734;8.950;2022-11-15T12:06:50;97121.16;;;15.56;68.16
27712;BME280;2377;51.734;8.950;2022-11-15T12:09:26;97116.75;;;15.61;68.95
27712;BME280;2377;51.734;8.950;2022-11-15T12:12:02;97108.28;;;15.56;68.88
27712;BME280;2377;51.734;8.950;2022-11-15T12:14:42;97097.44;;;15.59;68.65
27712;BME280;2377;51.734;8.950;2022-11-15T12:17:11;97094.38;;;15.47;67.22
27712;BME280;2377;51.734;8.950;2022-11-15T12:19:40;97093.84;;;15.50;67.34
27712;BME280;2377;51.734;8.950;2022-11-15T12:22:18;97098.00;;;15.46;67.51
27712;BME280;2377;51.734;8.950;2022-11-15T12:24:56;97085.16;;;15.40;66.47
27712;BME280;2377;51.734;8.950;2022-11-15T12:27:33;97090.81;;;15.37;66.64
27712;BME280;2377;51.734;8.950;2022-11-15T12:30:11;97087.22;;;15.38;67.61
27712;BME280;2377;51.734;8.950;2022-11-15T12:32:50;97096.97;;;15.47;67.79
27712;BME280;2377;51.734;8.950;2022-11-15T12:35:28;97094.09;;;15.58;66.96
27712;BME280;2377;51.734;8.950;2022-11-15T12:37:59;97087.66;;;15.56;66.55
27712;BME280;2377;51.734;8.950;2022-11-15T12:40:35;97083.31;;;15.51;66.53
27712;BME280;2377;51.734;8.950;2022-11-15T12:43:39;97081.28;;;15.43;65.91
27712;BME280;2377;51.734;8.950;2022-11-15T12:46:20;97084.09;;;15.47;65.98
27712;BME280;2377;51.734;8.950;2022-11-15T12:48:54;97083.06;;;15.42;65.57
27712;BME280;2377;51.734;8.950;2022-11-15T12:52:05;97083.06;;;15.37;64.92
27712;BME280;2377;51.734;8.950;2022-11-15T12:54:56;97080.00;;;15.40;65.22
27712;BME280;2377;51.734;8.950;2022-11-15T12:57:39;97070.69;;;15.44;64.94
27712;BME280;2377;51.734;8.950;2022-11-15T13:00:44;97063.22;;;15.48;64.10
27712;BME280;2377;51.734;8.950;2022-11-15T13:03:28;97066.06;;;15.47;63.67
27712;BME280;2377;51.734;8.950;2022-11-15T13:06:40;97063.50;;;15.41;63.70
27712;BME280;2377;51.734;8.950;2022-11-15T13:09:53;97058.38;;;15.36;63.06
27712;BME280;2377;51.734;8.950;2022-11-15T13:12:54;97059.41;;;15.40;63.61
27712;BME280;2377;51.734;8.950;2022-11-15T13:15:36;97052.47;;;15.36;63.32
27712;BME280;2377;51.734;8.950;2022-11-15T13:18:39;97056.59;;;15.27;62.46
27712;BME280;2377;51.734;8.950;2022-11-15T13:21:22;97046.31;;;15.21;62.65
27712;BME280;2377;51.734;8.950;2022-11-15T13:24:15;97057.38;;;15.22;63.32
27712;BME280;2377;51.734;8.950;2022-11-15T13:26:43;97049.91;;;15.20;63.19
27712;BME280;2377;51.734;8.950;2022-11-15T13:29:16;97053.53;;;15.19;63.72
27712;BME280;2377;51.734;8.950;2022-11-15T13:31:46;97052.50;;;15.15;63.84
27712;BME280;2377;51.734;8.950;2022-11-15T13:34:27;97054.81;;;15.17;63.32
27712;BME280;2377;51.734;8.950;2022-11-15T13:36:56;97046.03;;;15.18;62.95
27712;BME280;2377;51.734;8.950;2022-11-15T13:39:31;97049.41;;;15.13;62.68
27712;BME280;2377;51.734;8.950;2022-11-15T13:41:59;97049.66;;;15.12;62.35
27712;BME280;2377;51.734;8.950;2022-11-15T13:44:29;97049.66;;;15.12;62.63
27712;BME280;2377;51.734;8.950;2022-11-15T13:47:06;97044.00;;;15.10;62.97
27712;BME280;2377;51.734;8.950;2022-11-15T13:49:34;97038.34;;;15.08;62.50